Time;durP1;ratioP1;P1;durP2;ratioP2;P2;SDS_P1;SDS_P2;PMS_P1;PMS_P2;Temp;Humidity;BMP_temperature;BMP_pressure;BME280_temperature;BME280_humidity;BME280_pressure;Samples;Min_cycle;Max_cycle;Signal;HPM_P1;HPM_P2
2021/01/01 00:07:52;;;;;;;43.5;32.3;;;;;;;-0.16;86.92383;97944.58;;;;
2021/01/01 00:17:49;;;;;;;38.9;29;;;;;;;-0.16;87.40723;97939.28;;;;
2021/01/01 00:27:47;;;;;;;41.9;32.5;;;;;;;-0.14;86.73242;97943.27;;;;
2021/01/01 00:37:45;;;;;;;39.7;32.5;;;;;;;-0.26;86.82715;97950.59;;;;
2021/01/01 00:47:43;;;;;;;31.6;25.6;;;;;;;-0.33;87.03027;97962.45;;;;
2021/01/01 00:57:40;;;;;;;41.6;29.9;;;;;;;-0.44;87.96387;97961.56;;;;
2021/01/01 01:07:38;;;;;;;52.2;38.8;;;;;;;-0.33;87.54785;97957.95;;;;
2021/01/01 01:17:36;;;;;;;47.4;34.1;;;;;;;-0.46;87.75195;97974.27;;;;
2021/01/01 01:27:34;;;;;;;45.7;27.6;;;;;;;-0.41;87.32129;97962.9;;;;
2021/01/01 01:37:31;;;;;;;41.9;30.1;;;;;;;-0.3;86.87305;97959.3;;;;
2021/01/01 01:47:29;;;;;;;46.8;32.9;;;;;;;-0.43;87.12207;97973.76;;;;
2021/01/01 01:57:27;;;;;;;51.8;39;;;;;;;-0.29;86.9082;97980.23;;;;
2021/01/01 02:07:24;;;;;;;48;34;;;;;;;-0.37;86.54199;97985.98;;;;
2021/01/01 02:17:22;;;;;;;45.5;33.6;;;;;;;-0.55;87.2168;97975.75;;;;
2021/01/01 02:27:20;;;;;;;52.5;36.7;;;;;;;-0.58;86.95898;97963.02;;;;
2021/01/01 02:37:19;;;;;;;35.3;24.7;;;;;;;-0.77;87.70996;97961.8;;;;
2021/01/01 02:47:16;;;;;;;35;27.9;;;;;;;-0.67;87.39063;97964.53;;;;
2021/01/01 02:57:13;;;;;;;46.9;33.6;;;;;;;-0.51;87.11816;97964.42;;;;
2021/01/01 03:07:10;;;;;;;44;30.3;;;;;;;-0.63;87.51953;97955.86;;;;
2021/01/01 03:17:08;;;;;;;47.3;31.1;;;;;;;-0.7;87.94336;97960.55;;;;
2021/01/01 03:27:06;;;;;;;35.7;25.3;;;;;;;-0.81;87.52539;97968.63;;;;
2021/01/01 03:37:03;;;;;;;45.3;28.6;;;;;;;-0.59;86.77148;97977.33;;;;
2021/01/01 03:47:01;;;;;;;38.2;29.3;;;;;;;-0.64;86.77148;97974.62;;;;
2021/01/01 03:56:59;;;;;;;46.1;30.4;;;;;;;-0.64;86.84961;97970.13;;;;
2021/01/01 04:06:57;;;;;;;43.3;28.1;;;;;;;-0.54;86.65039;97970.22;;;;
2021/01/01 04:16:54;;;;;;;40.7;29.9;;;;;;;-0.88;87.45801;97968.83;;;;
2021/01/01 04:26:52;;;;;;;48.8;29.7;;;;;;;-0.72;86.43848;97967.92;;;;
2021/01/01 04:36:50;;;;;;;30.9;22.6;;;;;;;-0.63;86.50098;97961.15;;;;
2021/01/01 04:46:47;;;;;;;39.2;26.6;;;;;;;-0.64;86.45313;97982.55;;;;
2021/01/01 04:56:45;;;;;;;53.7;31.2;;;;;;;-0.63;86.6416;97978.87;;;;
2021/01/01 05:06:43;;;;;;;36.8;28.5;;;;;;;-0.54;86.00195;97990.59;;;;
2021/01/01 05:16:41;;;;;;;44.9;27.2;;;;;;;-0.56;85.64746;98003.28;;;;
2021/01/01 05:26:38;;;;;;;43.9;26.9;;;;;;;-0.57;85.40625;98007.77;;;;
2021/01/01 05:36:38;;;;;;;36.8;31.1;;;;;;;-0.61;85.89063;98019.09;;;;
2021/01/01 05:46:35;;;;;;;49.7;31.4;;;;;;;-0.71;86.60352;98029.58;;;;
2021/01/01 05:56:31;;;;;;;39.4;30.1;;;;;;;-0.69;86.24707;98030.92;;;;
2021/01/01 06:06:30;;;;;;;43;27.4;;;;;;;-0.66;85.95605;98041;;;;
2021/01/01 06:16:27;;;;;;;39.4;28.1;;;;;;;-0.72;85.8584;98039.36;;;;
2021/01/01 06:26:25;;;;;;;27.7;23.3;;;;;;;-0.85;85.85156;98036.3;;;;
2021/01/01 06:36:22;;;;;;;29.4;22.1;;;;;;;-0.84;85.67969;98043.2;;;;
2021/01/01 06:46:20;;;;;;;23.3;20.8;;;;;;;-0.89;86.2168;98051.86;;;;
2021/01/01 06:56:18;;;;;;;46.7;25.4;;;;;;;-0.87;85.77148;98051.63;;;;
2021/01/01 07:06:16;;;;;;;27.8;19.6;;;;;;;-0.87;86.03613;98060.37;;;;
2021/01/01 07:16:13;;;;;;;43.8;23;;;;;;;-0.86;85.84961;98055.84;;;;
2021/01/01 07:26:11;;;;;;;46.4;30.7;;;;;;;-0.73;85.39453;98063.44;;;;
2021/01/01 07:36:08;;;;;;;39.6;27.8;;;;;;;-0.9;85.91895;98068;;;;
2021/01/01 07:46:06;;;;;;;29.2;24.7;;;;;;;-0.79;85.83301;98080.27;;;;
2021/01/01 07:56:04;;;;;;;33.4;26.8;;;;;;;-0.71;85.29883;98078.01;;;;
2021/01/01 08:06:01;;;;;;;35.5;25.6;;;;;;;-0.59;84.46875;98093.77;;;;
2021/01/01 08:15:59;;;;;;;26.2;20.6;;;;;;;-0.54;84.89453;98085.86;;;;
2021/01/01 08:25:57;;;;;;;38.8;27.5;;;;;;;-0.36;84.8877;98093.48;;;;
2021/01/01 08:35:54;;;;;;;42.7;29;;;;;;;-0.61;85.93457;98095.84;;;;
2021/01/01 08:45:52;;;;;;;41.3;33.5;;;;;;;-0.54;85.56348;98101.73;;;;
2021/01/01 08:55:50;;;;;;;35.2;27.6;;;;;;;-0.26;84.0166;98087.48;;;;
2021/01/01 09:05:47;;;;;;;53.5;35.1;;;;;;;-0.37;84.29395;98099.81;;;;
2021/01/01 09:15:45;;;;;;;48.8;33.3;;;;;;;-0.58;83.79102;98098.79;;;;
2021/01/01 09:25:43;;;;;;;36.7;27.3;;;;;;;0.19;83.55664;98100.34;;;;
2021/01/01 09:35:40;;;;;;;51;30;;;;;;;0.56;80.91113;98110.95;;;;
2021/01/01 09:45:38;;;;;;;33;25.3;;;;;;;0.58;81.67578;98104.36;;;;
2021/01/01 09:55:36;;;;;;;29.5;25.3;;;;;;;0.7;81.33594;98112.91;;;;
2021/01/01 10:05:35;;;;;;;42.3;32.3;;;;;;;0.45;81.13281;98104.8;;;;
2021/01/01 10:15:31;;;;;;;43.7;30.1;;;;;;;0.99;82.70117;98094.79;;;;
2021/01/01 10:25:29;;;;;;;42.9;31.9;;;;;;;1.1;81.05762;98088.48;;;;
2021/01/01 10:35:27;;;;;;;52.7;34.2;;;;;;;1.11;81.01367;98076.02;;;;
2021/01/01 10:45:25;;;;;;;39.1;31.9;;;;;;;1.35;80.00195;98066.55;;;;
2021/01/01 10:55:22;;;;;;;53.6;36.2;;;;;;;1.05;82.32617;98055.8;;;;
2021/01/01 11:05:20;;;;;;;47.6;35.4;;;;;;;1.31;81.41797;98047.7;;;;
2021/01/01 12:25:04;;;;;;;38.3;34.1;;;;;;;2.79;77.34766;98063.43;;;;
2021/01/01 12:35:02;;;;;;;37.8;29.6;;;;;;;2.37;77.8252;98057.64;;;;
2021/01/01 12:45:00;;;;;;;52.8;36.1;;;;;;;1.81;79.63477;98076.22;;;;
2021/01/01 12:54:58;;;;;;;53.2;38.3;;;;;;;1.61;80.56738;98088.66;;;;
2021/01/01 13:04:56;;;;;;;216.1;145.6;;;;;;;1.38;81.28711;98089.92;;;;
2021/01/01 13:14:54;;;;;;;62.9;46.7;;;;;;;1.2;82.58691;98090.38;;;;
2021/01/01 13:24:52;;;;;;;108.8;64.3;;;;;;;0.83;83.68262;98091.23;;;;
2021/01/01 13:34:50;;;;;;;132.5;86.1;;;;;;;0.85;83.66406;98098.95;;;;
2021/01/01 13:44:48;;;;;;;52.1;38.1;;;;;;;0.68;84.06055;98095.66;;;;
2021/01/01 13:54:46;;;;;;;44.3;33.3;;;;;;;0.57;84.92773;98107.25;;;;
2021/01/01 14:04:44;;;;;;;50.3;35.1;;;;;;;0.4;85.29004;98107.41;;;;
2021/01/01 14:14:42;;;;;;;55.4;38.4;;;;;;;0.37;85.48438;98106.06;;;;
2021/01/01 14:24:39;;;;;;;51;36.6;;;;;;;0.27;85.93555;98126.38;;;;
2021/01/01 14:34:37;;;;;;;41.9;35.7;;;;;;;0.03;86.67676;98138.35;;;;
2021/01/01 14:44:36;;;;;;;43.9;35.7;;;;;;;-0.09;86.1709;98149.08;;;;
2021/01/01 14:54:33;;;;;;;61.3;43.4;;;;;;;-0.25;86.51074;98140.2;;;;
2021/01/01 15:04:31;;;;;;;54.3;39.8;;;;;;;-0.36;87.99121;98146.42;;;;
2021/01/01 15:14:28;;;;;;;60.2;44.3;;;;;;;-0.3;87.66406;98161.31;;;;
2021/01/01 15:24:26;;;;;;;38.5;26.6;;;;;;;-0.37;88.08594;98167.83;;;;
2021/01/01 15:34:24;;;;;;;48.6;37.5;;;;;;;-0.42;88.47168;98162.5;;;;
2021/01/01 15:44:22;;;;;;;54.1;39;;;;;;;-0.52;88.42969;98169.25;;;;
2021/01/01 15:54:20;;;;;;;54.7;39.4;;;;;;;-0.51;88.93555;98191.23;;;;
2021/01/01 16:04:17;;;;;;;51;41.5;;;;;;;-0.56;88.99121;98165.52;;;;
2021/01/01 16:14:15;;;;;;;40.4;33.6;;;;;;;-0.48;88.32715;98181.98;;;;
2021/01/01 16:24:13;;;;;;;49.8;33.5;;;;;;;-0.62;88.64844;98168.32;;;;
2021/01/01 16:34:10;;;;;;;45.6;32;;;;;;;-0.52;88.16602;98182.48;;;;
2021/01/01 16:44:09;;;;;;;59.1;42;;;;;;;-0.66;88.61914;98188.41;;;;
2021/01/01 16:54:06;;;;;;;60;45;;;;;;;-0.59;88.61328;98203.03;;;;
2021/01/01 17:04:04;;;;;;;49.9;36;;;;;;;-0.53;87.78125;98214.5;;;;
2021/01/01 17:14:01;;;;;;;46;32.5;;;;;;;-0.34;86.95313;98234.33;;;;
2021/01/01 17:23:59;;;;;;;47.8;33.2;;;;;;;-0.61;87.84082;98223.66;;;;
2021/01/01 17:34:01;;;;;;;45.8;33;;;;;;;-0.45;86.99805;98235.23;;;;
2021/01/01 17:43:54;;;;;;;51.3;33.3;;;;;;;-0.46;87.09473;98262.77;;;;
2021/01/01 17:53:52;;;;;;;47.5;31.9;;;;;;;-0.38;86.82422;98261.55;;;;
2021/01/01 18:03:50;;;;;;;60.4;35.6;;;;;;;-0.52;87.21289;98269.82;;;;
2021/01/01 18:13:47;;;;;;;52.9;40;;;;;;;-0.45;87.16211;98277.59;;;;
2021/01/01 18:23:45;;;;;;;42.5;32.1;;;;;;;-0.39;87.26074;98281.13;;;;
2021/01/01 18:33:43;;;;;;;56.9;37.5;;;;;;;-0.43;87.09766;98285.3;;;;
2021/01/01 18:43:45;;;;;;;43.2;32.3;;;;;;;-0.58;87.49609;98291.98;;;;
2021/01/01 18:53:42;;;;;;;53.4;37.7;;;;;;;-0.7;87.53809;98312.45;;;;
2021/01/01 19:04:02;;;;;;;40.6;28.2;;;;;;;-0.78;87.84863;98306.75;;;;
2021/01/01 19:13:37;;;;;;;40.8;30.1;;;;;;;-0.84;87.50879;98297.95;;;;
2021/01/01 19:23:31;;;;;;;31.1;25.1;;;;;;;-0.99;87.51953;98310.11;;;;
2021/01/01 19:33:29;;;;;;;46.1;32.9;;;;;;;-1.05;87.96777;98317.17;;;;
2021/01/01 19:43:27;;;;;;;39.3;26.2;;;;;;;-1.02;87.65625;98324.63;;;;
2021/01/01 19:53:24;;;;;;;30;25;;;;;;;-1.05;87.75098;98344.42;;;;
2021/01/01 20:03:22;;;;;;;29.1;22.6;;;;;;;-0.97;87.21875;98353.78;;;;
2021/01/01 20:13:19;;;;;;;42.7;28.4;;;;;;;-1.07;87.61621;98349.13;;;;
2021/01/01 20:23:17;;;;;;;49;34.6;;;;;;;-0.94;87.24609;98373.69;;;;
2021/01/01 20:33:15;;;;;;;32.8;29;;;;;;;-1.15;87.3916;98373.33;;;;
2021/01/01 20:43:12;;;;;;;37.2;30;;;;;;;-1.16;87.54102;98387.59;;;;
2021/01/01 21:03:08;;;;;;;39.3;25;;;;;;;-1.19;87.44824;98403.12;;;;
2021/01/01 21:13:05;;;;;;;30.8;23.6;;;;;;;-1.21;87.63086;98416.56;;;;
2021/01/01 21:23:03;;;;;;;45.7;29.9;;;;;;;-1.16;87.51953;98413.22;;;;
2021/01/01 21:33:01;;;;;;;35.6;29.8;;;;;;;-1.03;86.72559;98421.66;;;;
2021/01/01 21:43:07;;;;;;;60.3;34.7;;;;;;;-0.99;87.03809;98431.77;;;;
2021/01/01 21:52:56;;;;;;;42.4;30.9;;;;;;;-1.25;87.52246;98433.92;;;;
2021/01/01 22:02:54;;;;;;;40.4;28.1;;;;;;;-1.25;87.23828;98431.28;;;;
2021/01/01 22:12:51;;;;;;;42.5;30.8;;;;;;;-1.16;87.11426;98423.8;;;;
2021/01/01 22:22:49;;;;;;;50.9;31.9;;;;;;;-1.11;87.18066;98431.84;;;;
2021/01/01 22:32:47;;;;;;;48.8;30.2;;;;;;;-1.17;87.03809;98425.63;;;;
2021/01/01 22:42:44;;;;;;;43.5;34.4;;;;;;;-1.35;87.50293;98417.88;;;;
2021/01/01 22:52:42;;;;;;;42.6;26.6;;;;;;;-1.33;86.78418;98442.25;;;;
2021/01/01 23:02:44;;;;;;;37.3;24.6;;;;;;;-1.4;87.99609;98444.22;;;;
2021/01/01 23:12:43;;;;;;;31.4;24.6;;;;;;;-1.43;87.52832;98430.67;;;;
2021/01/01 23:22:40;;;;;;;34.8;21.1;;;;;;;-1.48;87.26758;98446.41;;;;
2021/01/01 23:32:33;;;;;;;34.3;22.9;;;;;;;-1.53;86.65723;98445.27;;;;
2021/01/01 23:42:30;;;;;;;27.1;20.4;;;;;;;-1.51;86.62793;98458.25;;;;
2021/01/01 23:52:28;;;;;;;34.9;25.4;;;;;;;-1.88;87.67676;98459.58;;;;
